sensor_id;sensor_type;location;lat;lon;timestamp;P1;durP1;ratioP1;P2;durP2;ratioP2
21546;SDS011;41275;51.912;4.388;2023-06-04T00:00:22;2.03;;;0.88;;
21546;SDS011;41275;51.912;4.388;2023-06-04T00:05:43;2.67;;;0.90;;
21546;SDS011;41275;51.912;4.388;2023-06-04T00:11:04;5.18;;;0.80;;
21546;SDS011;41275;51.912;4.388;2023-06-04T00:16:26;1.88;;;0.90;;
21546;SDS011;41275;51.912;4.388;2023-06-04T00:21:47;4.18;;;0.98;;
21546;SDS011;41275;51.912;4.388;2023-06-04T00:27:08;1.97;;;0.77;;
21546;SDS011;41275;51.912;4.388;2023-06-04T00:32:30;2.47;;;1.00;;
21546;SDS011;41275;51.912;4.388;2023-06-04T00:37:52;2.67;;;0.90;;
21546;SDS011;41275;51.912;4.388;2023-06-04T00:43:13;2.83;;;0.80;;
21546;SDS011;41275;51.912;4.388;2023-06-04T00:48:34;2.00;;;0.90;;
21546;SDS011;41275;51.912;4.388;2023-06-04T00:53:57;3.67;;;1.00;;
21546;SDS011;41275;51.912;4.388;2023-06-04T00:59:19;2.63;;;0.80;;
21546;SDS011;41275;51.912;4.388;2023-06-04T01:10:16;2.30;;;1.08;;
21546;SDS011;41275;51.912;4.388;2023-06-04T01:15:37;2.83;;;1.02;;
21546;SDS011;41275;51.912;4.388;2023-06-04T01:21:02;3.95;;;1.13;;
21546;SDS011;41275;51.912;4.388;2023-06-04T01:26:30;2.90;;;0.90;;
21546;SDS011;41275;51.912;4.388;2023-06-04T01:31:52;2.57;;;0.90;;
21546;SDS011;41275;51.912;4.388;2023-06-04T01:37:14;4.47;;;1.08;;
21546;SDS011;41275;51.912;4.388;2023-06-04T01:42:37;3.20;;;1.00;;
21546;SDS011;41275;51.912;4.388;2023-06-04T01:48:00;2.72;;;1.08;;
21546;SDS011;41275;51.912;4.388;2023-06-04T01:53:22;3.33;;;1.37;;
21546;SDS011;41275;51.912;4.388;2023-06-04T01:58:43;2.00;;;0.90;;
21546;SDS011;41275;51.912;4.388;2023-06-04T02:04:05;2.47;;;1.00;;
21546;SDS011;41275;51.912;4.388;2023-06-04T02:09:26;2.10;;;0.88;;
21546;SDS011;41275;51.912;4.388;2023-06-04T02:14:47;5.15;;;1.17;;
21546;SDS011;41275;51.912;4.388;2023-06-04T02:20:08;2.27;;;1.20;;
21546;SDS011;41275;51.912;4.388;2023-06-04T02:25:30;3.17;;;1.00;;
21546;SDS011;41275;51.912;4.388;2023-06-04T02:30:51;2.67;;;1.20;;
21546;SDS011;41275;51.912;4.388;2023-06-04T02:36:12;2.78;;;1.00;;
21546;SDS011;41275;51.912;4.388;2023-06-04T02:41:34;3.87;;;1.20;;
21546;SDS011;41275;51.912;4.388;2023-06-04T02:46:55;3.40;;;1.08;;
21546;SDS011;41275;51.912;4.388;2023-06-04T02:52:16;2.75;;;1.33;;
21546;SDS011;41275;51.912;4.388;2023-06-04T02:57:39;3.50;;;1.10;;
21546;SDS011;41275;51.912;4.388;2023-06-04T03:03:04;4.82;;;1.35;;
21546;SDS011;41275;51.912;4.388;2023-06-04T03:08:26;2.60;;;1.00;;
21546;SDS011;41275;51.912;4.388;2023-06-04T03:13:48;3.73;;;1.00;;
21546;SDS011;41275;51.912;4.388;2023-06-04T03:19:09;3.70;;;1.20;;
21546;SDS011;41275;51.912;4.388;2023-06-04T03:24:33;2.90;;;0.93;;
21546;SDS011;41275;51.912;4.388;2023-06-04T03:29:56;2.83;;;1.17;;
21546;SDS011;41275;51.912;4.388;2023-06-04T03:35:17;4.60;;;1.08;;
21546;SDS011;41275;51.912;4.388;2023-06-04T03:40:38;3.08;;;0.98;;
21546;SDS011;41275;51.912;4.388;2023-06-04T03:45:59;3.37;;;0.97;;
21546;SDS011;41275;51.912;4.388;2023-06-04T03:51:21;3.72;;;1.05;;
21546;SDS011;41275;51.912;4.388;2023-06-04T03:56:43;2.85;;;1.10;;
21546;SDS011;41275;51.912;4.388;2023-06-04T04:02:05;2.58;;;0.98;;
21546;SDS011;41275;51.912;4.388;2023-06-04T04:07:26;5.32;;;1.10;;
21546;SDS011;41275;51.912;4.388;2023-06-04T04:12:48;2.10;;;0.90;;
21546;SDS011;41275;51.912;4.388;2023-06-04T04:18:09;3.20;;;0.80;;
21546;SDS011;41275;51.912;4.388;2023-06-04T04:23:31;2.13;;;0.80;;
21546;SDS011;41275;51.912;4.388;2023-06-04T04:28:52;3.40;;;0.90;;
21546;SDS011;41275;51.912;4.388;2023-06-04T04:34:18;1.83;;;0.90;;
21546;SDS011;41275;51.912;4.388;2023-06-04T04:39:42;3.28;;;0.90;;
21546;SDS011;41275;51.912;4.388;2023-06-04T04:45:03;2.80;;;1.10;;
21546;SDS011;41275;51.912;4.388;2023-06-04T04:50:25;3.95;;;0.73;;
21546;SDS011;41275;51.912;4.388;2023-06-04T04:55:46;3.80;;;1.23;;
21546;SDS011;41275;51.912;4.388;2023-06-04T05:01:07;2.40;;;0.77;;
21546;SDS011;41275;51.912;4.388;2023-06-04T05:06:29;3.20;;;1.10;;
21546;SDS011;41275;51.912;4.388;2023-06-04T05:11:50;3.10;;;1.20;;
21546;SDS011;41275;51.912;4.388;2023-06-04T05:17:12;3.78;;;1.05;;
21546;SDS011;41275;51.912;4.388;2023-06-04T05:22:33;2.70;;;1.10;;
21546;SDS011;41275;51.912;4.388;2023-06-04T05:27:56;2.50;;;0.93;;
21546;SDS011;41275;51.912;4.388;2023-06-04T05:33:18;3.00;;;1.00;;
21546;SDS011;41275;51.912;4.388;2023-06-04T05:38:39;1.47;;;0.70;;
21546;SDS011;41275;51.912;4.388;2023-06-04T05:44:00;3.28;;;0.90;;
21546;SDS011;41275;51.912;4.388;2023-06-04T05:49:21;3.17;;;1.02;;
21546;SDS011;41275;51.912;4.388;2023-06-04T05:54:45;2.20;;;0.90;;
21546;SDS011;41275;51.912;4.388;2023-06-04T06:00:06;2.97;;;1.00;;
21546;SDS011;41275;51.912;4.388;2023-06-04T06:05:31;2.67;;;0.60;;
21546;SDS011;41275;51.912;4.388;2023-06-04T06:10:52;2.10;;;0.95;;
21546;SDS011;41275;51.912;4.388;2023-06-04T06:16:13;4.57;;;1.00;;
21546;SDS011;41275;51.912;4.388;2023-06-04T06:21:35;4.23;;;1.20;;
21546;SDS011;41275;51.912;4.388;2023-06-04T06:26:56;6.70;;;1.02;;
21546;SDS011;41275;51.912;4.388;2023-06-04T06:32:18;2.47;;;0.77;;
21546;SDS011;41275;51.912;4.388;2023-06-04T06:37:39;2.23;;;0.80;;
21546;SDS011;41275;51.912;4.388;2023-06-04T06:43:02;4.60;;;0.90;;
21546;SDS011;41275;51.912;4.388;2023-06-04T06:48:24;3.00;;;1.00;;
21546;SDS011;41275;51.912;4.388;2023-06-04T06:53:45;2.38;;;0.90;;
21546;SDS011;41275;51.912;4.388;2023-06-04T06:59:06;3.20;;;0.85;;
21546;SDS011;41275;51.912;4.388;2023-06-04T07:04:27;2.10;;;0.80;;
21546;SDS011;41275;51.912;4.388;2023-06-04T07:09:49;3.27;;;0.83;;
21546;SDS011;41275;51.912;4.388;2023-06-04T07:15:10;3.17;;;0.77;;
21546;SDS011;41275;51.912;4.388;2023-06-04T07:20:32;4.07;;;0.88;;
21546;SDS011;41275;51.912;4.388;2023-06-04T07:25:53;2.10;;;0.77;;
21546;SDS011;41275;51.912;4.388;2023-06-04T07:31:15;1.85;;;0.73;;
21546;SDS011;41275;51.912;4.388;2023-06-04T07:36:37;3.28;;;0.70;;
21546;SDS011;41275;51.912;4.388;2023-06-04T07:41:58;2.50;;;0.70;;
21546;SDS011;41275;51.912;4.388;2023-06-04T07:47:19;1.92;;;0.60;;
21546;SDS011;41275;51.912;4.388;2023-06-04T07:52:41;1.77;;;0.50;;
21546;SDS011;41275;51.912;4.388;2023-06-04T07:58:02;3.97;;;0.73;;
21546;SDS011;41275;51.912;4.388;2023-06-04T08:03:23;2.85;;;0.75;;
21546;SDS011;41275;51.912;4.388;2023-06-04T08:08:45;4.00;;;0.80;;
21546;SDS011;41275;51.912;4.388;2023-06-04T08:14:09;2.33;;;0.70;;
21546;SDS011;41275;51.912;4.388;2023-06-04T08:19:31;1.95;;;0.68;;
21546;SDS011;41275;51.912;4.388;2023-06-04T08:24:52;1.27;;;0.67;;
21546;SDS011;41275;51.912;4.388;2023-06-04T08:30:13;2.00;;;0.70;;
21546;SDS011;41275;51.912;4.388;2023-06-04T08:35:35;2.30;;;0.70;;
21546;SDS011;41275;51.912;4.388;2023-06-04T08:40:58;1.42;;;0.70;;
21546;SDS011;41275;51.912;4.388;2023-06-04T08:46:57;2.65;;;0.70;;
21546;SDS011;41275;51.912;4.388;2023-06-04T08:52:29;2.00;;;0.60;;
21546;SDS011;41275;51.912;4.388;2023-06-04T08:57:51;1.60;;;0.80;;
21546;SDS011;41275;51.912;4.388;2023-06-04T09:03:13;3.50;;;0.90;;
21546;SDS011;41275;51.912;4.388;2023-06-04T09:08:37;2.28;;;0.73;;
21546;SDS011;41275;51.912;4.388;2023-06-04T09:14:01;2.92;;;0.80;;
21546;SDS011;41275;51.912;4.388;2023-06-04T09:19:24;3.37;;;0.90;;
21546;SDS011;41275;51.912;4.388;2023-06-04T09:24:46;5.15;;;0.90;;
21546;SDS011;41275;51.912;4.388;2023-06-04T09:30:08;6.47;;;1.67;;
21546;SDS011;41275;51.912;4.388;2023-06-04T09:35:30;3.13;;;0.90;;
21546;SDS011;41275;51.912;4.388;2023-06-04T09:40:51;2.83;;;0.80;;
21546;SDS011;41275;51.912;4.388;2023-06-04T09:46:13;2.75;;;1.02;;
21546;SDS011;41275;51.912;4.388;2023-06-04T09:51:35;2.28;;;0.80;;
21546;SDS011;41275;51.912;4.388;2023-06-04T09:57:18;2.90;;;0.80;;
21546;SDS011;41275;51.912;4.388;2023-06-04T10:02:39;3.42;;;0.65;;
21546;SDS011;41275;51.912;4.388;2023-06-04T10:08:04;2.28;;;0.90;;
21546;SDS011;41275;51.912;4.388;2023-06-04T10:13:26;3.20;;;1.30;;
21546;SDS011;41275;51.912;4.388;2023-06-04T10:18:49;3.85;;;0.77;;
21546;SDS011;41275;51.912;4.388;2023-06-04T10:24:16;3.22;;;0.80;;
21546;SDS011;41275;51.912;4.388;2023-06-04T10:29:39;2.40;;;1.00;;
21546;SDS011;41275;51.912;4.388;2023-06-04T10:35:06;2.20;;;0.90;;
21546;SDS011;41275;51.912;4.388;2023-06-04T10:40:32;4.78;;;0.88;;
21546;SDS011;41275;51.912;4.388;2023-06-04T10:45:54;2.50;;;0.70;;
21546;SDS011;41275;51.912;4.388;2023-06-04T10:51:16;3.53;;;0.90;;
21546;SDS011;41275;51.912;4.388;2023-06-04T10:56:49;3.55;;;0.80;;
21546;SDS011;41275;51.912;4.388;2023-06-04T11:02:10;3.47;;;0.77;;
21546;SDS011;41275;51.912;4.388;2023-06-04T11:07:45;2.42;;;0.80;;
21546;SDS011;41275;51.912;4.388;2023-06-04T11:13:08;2.47;;;0.82;;
21546;SDS011;41275;51.912;4.388;2023-06-04T11:18:29;2.38;;;0.80;;
21546;SDS011;41275;51.912;4.388;2023-06-04T11:23:57;1.95;;;0.70;;
21546;SDS011;41275;51.912;4.388;2023-06-04T11:29:19;2.97;;;0.90;;
21546;SDS011;41275;51.912;4.388;2023-06-04T11:34:42;1.40;;;0.70;;
21546;SDS011;41275;51.912;4.388;2023-06-04T11:40:03;2.60;;;0.88;;
21546;SDS011;41275;51.912;4.388;2023-06-04T11:45:38;1.90;;;0.70;;
21546;SDS011;41275;51.912;4.388;2023-06-04T11:51:04;3.13;;;0.90;;
21546;SDS011;41275;51.912;4.388;2023-06-04T11:56:26;2.20;;;0.65;;
21546;SDS011;41275;51.912;4.388;2023-06-04T12:01:48;2.20;;;0.90;;
21546;SDS011;41275;51.912;4.388;2023-06-04T12:07:10;2.17;;;0.90;;
21546;SDS011;41275;51.912;4.388;2023-06-04T12:12:32;2.93;;;0.97;;
21546;SDS011;41275;51.912;4.388;2023-06-04T12:17:54;4.78;;;1.20;;
21546;SDS011;41275;51.912;4.388;2023-06-04T12:23:19;4.15;;;1.63;;
21546;SDS011;41275;51.912;4.388;2023-06-04T12:28:41;2.03;;;0.77;;
21546;SDS011;41275;51.912;4.388;2023-06-04T12:34:02;2.27;;;0.97;;
21546;SDS011;41275;51.912;4.388;2023-06-04T12:39:23;3.45;;;0.80;;
21546;SDS011;41275;51.912;4.388;2023-06-04T12:44:44;4.15;;;1.10;;
21546;SDS011;41275;51.912;4.388;2023-06-04T12:50:06;2.70;;;0.90;;
21546;SDS011;41275;51.912;4.388;2023-06-04T12:55:27;1.95;;;0.80;;
21546;SDS011;41275;51.912;4.388;2023-06-04T13:00:48;2.85;;;0.90;;
21546;SDS011;41275;51.912;4.388;2023-06-04T13:06:09;3.38;;;0.90;;
21546;SDS011;41275;51.912;4.388;2023-06-04T13:11:31;2.58;;;0.75;;
21546;SDS011;41275;51.912;4.388;2023-06-04T13:16:52;2.43;;;0.97;;
21546;SDS011;41275;51.912;4.388;2023-06-04T13:22:13;3.42;;;0.90;;
21546;SDS011;41275;51.912;4.388;2023-06-04T13:27:35;2.33;;;0.83;;
21546;SDS011;41275;51.912;4.388;2023-06-04T13:32:56;3.05;;;1.10;;
21546;SDS011;41275;51.912;4.388;2023-06-04T13:38:19;9.82;;;5.05;;
21546;SDS011;41275;51.912;4.388;2023-06-04T13:43:40;3.53;;;0.90;;
21546;SDS011;41275;51.912;4.388;2023-06-04T13:49:01;3.05;;;0.85;;
21546;SDS011;41275;51.912;4.388;2023-06-04T13:54:23;2.10;;;0.80;;
21546;SDS011;41275;51.912;4.388;2023-06-04T13:59:44;2.27;;;0.93;;
21546;SDS011;41275;51.912;4.388;2023-06-04T14:05:05;2.38;;;0.80;;
21546;SDS011;41275;51.912;4.388;2023-06-04T14:10:27;4.00;;;0.90;;
21546;SDS011;41275;51.912;4.388;2023-06-04T14:15:48;3.35;;;1.02;;
21546;SDS011;41275;51.912;4.388;2023-06-04T14:21:09;3.93;;;0.90;;
21546;SDS011;41275;51.912;4.388;2023-06-04T14:26:30;4.10;;;1.00;;
21546;SDS011;41275;51.912;4.388;2023-06-04T14:31:51;3.67;;;1.70;;
21546;SDS011;41275;51.912;4.388;2023-06-04T14:37:13;3.83;;;1.23;;
21546;SDS011;41275;51.912;4.388;2023-06-04T14:42:34;3.57;;;1.10;;
21546;SDS011;41275;51.912;4.388;2023-06-04T14:47:55;5.78;;;1.40;;
21546;SDS011;41275;51.912;4.388;2023-06-04T14:53:16;4.13;;;1.00;;
21546;SDS011;41275;51.912;4.388;2023-06-04T14:58:37;5.38;;;1.15;;
21546;SDS011;41275;51.912;4.388;2023-06-04T15:03:59;4.78;;;1.17;;
21546;SDS011;41275;51.912;4.388;2023-06-04T15:09:20;3.10;;;1.00;;
21546;SDS011;41275;51.912;4.388;2023-06-04T15:14:42;6.88;;;1.42;;
21546;SDS011;41275;51.912;4.388;2023-06-04T15:20:03;4.87;;;1.67;;
21546;SDS011;41275;51.912;4.388;2023-06-04T15:25:25;5.15;;;1.23;;
21546;SDS011;41275;51.912;4.388;2023-06-04T15:30:46;3.57;;;1.13;;
21546;SDS011;41275;51.912;4.388;2023-06-04T15:36:07;6.30;;;1.80;;
21546;SDS011;41275;51.912;4.388;2023-06-04T15:41:28;3.95;;;1.23;;
21546;SDS011;41275;51.912;4.388;2023-06-04T15:46:50;4.57;;;1.33;;
21546;SDS011;41275;51.912;4.388;2023-06-04T15:52:11;6.17;;;1.90;;
21546;SDS011;41275;51.912;4.388;2023-06-04T15:57:32;4.40;;;1.50;;
21546;SDS011;41275;51.912;4.388;2023-06-04T16:02:53;5.25;;;1.88;;
21546;SDS011;41275;51.912;4.388;2023-06-04T16:08:15;4.93;;;1.70;;
21546;SDS011;41275;51.912;4.388;2023-06-04T16:13:36;5.13;;;1.30;;
21546;SDS011;41275;51.912;4.388;2023-06-04T16:18:57;5.20;;;1.35;;
21546;SDS011;41275;51.912;4.388;2023-06-04T16:24:19;7.60;;;1.50;;
21546;SDS011;41275;51.912;4.388;2023-06-04T16:29:40;5.57;;;1.60;;
21546;SDS011;41275;51.912;4.388;2023-06-04T16:35:01;5.23;;;1.20;;
21546;SDS011;41275;51.912;4.388;2023-06-04T16:40:23;5.75;;;1.30;;
21546;SDS011;41275;51.912;4.388;2023-06-04T16:45:45;4.63;;;1.40;;
21546;SDS011;41275;51.912;4.388;2023-06-04T16:51:06;5.03;;;1.42;;
21546;SDS011;41275;51.912;4.388;2023-06-04T16:56:28;5.07;;;1.45;;
21546;SDS011;41275;51.912;4.388;2023-06-04T17:01:49;3.03;;;1.25;;
21546;SDS011;41275;51.912;4.388;2023-06-04T17:07:10;4.63;;;1.43;;
21546;SDS011;41275;51.912;4.388;2023-06-04T17:12:31;6.30;;;1.50;;
21546;SDS011;41275;51.912;4.388;2023-06-04T17:17:56;4.97;;;1.67;;
21546;SDS011;41275;51.912;4.388;2023-06-04T17:23:21;7.10;;;1.92;;
21546;SDS011;41275;51.912;4.388;2023-06-04T17:28:44;5.55;;;1.60;;
21546;SDS011;41275;51.912;4.388;2023-06-04T17:34:05;4.97;;;1.90;;
21546;SDS011;41275;51.912;4.388;2023-06-04T17:39:26;4.20;;;1.57;;
21546;SDS011;41275;51.912;4.388;2023-06-04T17:44:47;4.53;;;1.60;;
21546;SDS011;41275;51.912;4.388;2023-06-04T17:50:09;9.07;;;2.30;;
21546;SDS011;41275;51.912;4.388;2023-06-04T17:55:31;6.03;;;1.60;;
21546;SDS011;41275;51.912;4.388;2023-06-04T18:00:53;4.30;;;1.20;;
21546;SDS011;41275;51.912;4.388;2023-06-04T18:06:14;7.23;;;1.87;;
21546;SDS011;41275;51.912;4.388;2023-06-04T18:11:35;7.17;;;1.53;;
21546;SDS011;41275;51.912;4.388;2023-06-04T18:16:56;3.47;;;1.25;;
21546;SDS011;41275;51.912;4.388;2023-06-04T18:22:17;6.00;;;1.50;;
21546;SDS011;41275;51.912;4.388;2023-06-04T18:27:39;5.45;;;1.50;;
21546;SDS011;41275;51.912;4.388;2023-06-04T18:33:00;6.00;;;1.45;;
21546;SDS011;41275;51.912;4.388;2023-06-04T18:38:21;8.93;;;1.73;;
21546;SDS011;41275;51.912;4.388;2023-06-04T18:43:43;4.93;;;1.98;;
21546;SDS011;41275;51.912;4.388;2023-06-04T18:49:04;6.63;;;1.35;;
21546;SDS011;41275;51.912;4.388;2023-06-04T18:54:25;5.53;;;1.60;;
21546;SDS011;41275;51.912;4.388;2023-06-04T18:59:46;3.70;;;1.43;;
21546;SDS011;41275;51.912;4.388;2023-06-04T19:05:08;8.65;;;1.77;;
21546;SDS011;41275;51.912;4.388;2023-06-04T19:10:31;5.78;;;1.58;;
21546;SDS011;41275;51.912;4.388;2023-06-04T19:15:52;5.60;;;1.60;;
21546;SDS011;41275;51.912;4.388;2023-06-04T19:21:13;5.77;;;1.60;;
21546;SDS011;41275;51.912;4.388;2023-06-04T19:26:35;3.37;;;1.50;;
21546;SDS011;41275;51.912;4.388;2023-06-04T19:31:56;5.93;;;1.33;;
21546;SDS011;41275;51.912;4.388;2023-06-04T19:37:17;3.63;;;1.20;;
21546;SDS011;41275;51.912;4.388;2023-06-04T19:42:38;5.70;;;1.50;;
21546;SDS011;41275;51.912;4.388;2023-06-04T19:48:00;5.00;;;1.23;;
21546;SDS011;41275;51.912;4.388;2023-06-04T19:53:21;3.20;;;1.20;;
21546;SDS011;41275;51.912;4.388;2023-06-04T19:58:42;4.57;;;1.38;;
21546;SDS011;41275;51.912;4.388;2023-06-04T20:04:03;3.38;;;1.10;;
21546;SDS011;41275;51.912;4.388;2023-06-04T20:09:25;3.75;;;1.20;;
21546;SDS011;41275;51.912;4.388;2023-06-04T20:14:48;5.20;;;1.40;;
21546;SDS011;41275;51.912;4.388;2023-06-04T20:20:09;5.43;;;1.67;;
21546;SDS011;41275;51.912;4.388;2023-06-04T20:25:31;4.53;;;1.30;;
21546;SDS011;41275;51.912;4.388;2023-06-04T20:30:52;3.75;;;1.30;;
21546;SDS011;41275;51.912;4.388;2023-06-04T20:36:13;4.25;;;1.20;;
21546;SDS011;41275;51.912;4.388;2023-06-04T20:41:35;3.77;;;1.60;;
21546;SDS011;41275;51.912;4.388;2023-06-04T20:46:56;4.10;;;1.45;;
21546;SDS011;41275;51.912;4.388;2023-06-04T20:52:17;6.03;;;1.40;;
21546;SDS011;41275;51.912;4.388;2023-06-04T20:57:39;4.10;;;1.50;;
21546;SDS011;41275;51.912;4.388;2023-06-04T21:03:00;7.55;;;1.90;;
21546;SDS011;41275;51.912;4.388;2023-06-04T21:08:22;7.10;;;2.00;;
21546;SDS011;41275;51.912;4.388;2023-06-04T21:13:44;5.73;;;1.70;;
21546;SDS011;41275;51.912;4.388;2023-06-04T21:19:06;3.80;;;1.70;;
21546;SDS011;41275;51.912;4.388;2023-06-04T21:24:27;5.85;;;1.70;;
21546;SDS011;41275;51.912;4.388;2023-06-04T21:29:48;5.60;;;1.63;;
21546;SDS011;41275;51.912;4.388;2023-06-04T21:35:09;4.47;;;1.70;;
21546;SDS011;41275;51.912;4.388;2023-06-04T21:40:32;5.63;;;1.70;;
21546;SDS011;41275;51.912;4.388;2023-06-04T21:45:53;5.25;;;1.60;;
21546;SDS011;41275;51.912;4.388;2023-06-04T21:51:15;4.60;;;2.00;;
21546;SDS011;41275;51.912;4.388;2023-06-04T21:56:36;5.03;;;1.83;;
21546;SDS011;41275;51.912;4.388;2023-06-04T22:01:57;5.63;;;1.83;;
21546;SDS011;41275;51.912;4.388;2023-06-04T22:07:19;4.07;;;1.80;;
21546;SDS011;41275;51.912;4.388;2023-06-04T22:12:41;4.47;;;1.93;;
21546;SDS011;41275;51.912;4.388;2023-06-04T22:18:02;4.40;;;2.05;;
21546;SDS011;41275;51.912;4.388;2023-06-04T22:23:23;6.00;;;2.00;;
21546;SDS011;41275;51.912;4.388;2023-06-04T22:28:44;5.90;;;2.22;;
21546;SDS011;41275;51.912;4.388;2023-06-04T22:34:06;4.33;;;2.30;;
21546;SDS011;41275;51.912;4.388;2023-06-04T22:39:27;5.32;;;2.17;;
21546;SDS011;41275;51.912;4.388;2023-06-04T22:44:48;5.43;;;2.30;;
21546;SDS011;41275;51.912;4.388;2023-06-04T22:50:09;4.55;;;2.40;;
21546;SDS011;41275;51.912;4.388;2023-06-04T22:55:31;6.73;;;2.50;;
21546;SDS011;41275;51.912;4.388;2023-06-04T23:00:52;6.03;;;2.47;;
21546;SDS011;41275;51.912;4.388;2023-06-04T23:06:13;4.47;;;2.38;;
21546;SDS011;41275;51.912;4.388;2023-06-04T23:11:34;5.63;;;2.40;;
21546;SDS011;41275;51.912;4.388;2023-06-04T23:16:55;6.00;;;2.40;;
21546;SDS011;41275;51.912;4.388;2023-06-04T23:22:17;5.72;;;2.60;;
21546;SDS011;41275;51.912;4.388;2023-06-04T23:27:38;5.82;;;2.35;;
21546;SDS011;41275;51.912;4.388;2023-06-04T23:32:59;5.90;;;2.60;;
21546;SDS011;41275;51.912;4.388;2023-06-04T23:38:20;7.30;;;2.80;;
21546;SDS011;41275;51.912;4.388;2023-06-04T23:43:41;6.43;;;3.08;;
21546;SDS011;41275;51.912;4.388;2023-06-04T23:49:03;8.20;;;2.60;;
21546;SDS011;41275;51.912;4.388;2023-06-04T23:54:24;5.07;;;2.40;;
21546;SDS011;41275;51.912;4.388;2023-06-04T23:59:45;4.57;;;2.67;;
